sensor_id;sensor_type;location;lat;lon;timestamp;P1;durP1;ratioP1;P2;durP2;ratioP2
38513;SDS011;24282;48.400;10.808;2023-06-22T00:01:27;4.47;;;3.00;;
38513;SDS011;24282;48.400;10.808;2023-06-22T00:03:53;2.80;;;2.50;;
38513;SDS011;24282;48.400;10.808;2023-06-22T00:06:19;4.18;;;2.65;;
38513;SDS011;24282;48.400;10.808;2023-06-22T00:08:45;5.45;;;3.20;;
38513;SDS011;24282;48.400;10.808;2023-06-22T00:11:10;5.25;;;2.92;;
38513;SDS011;24282;48.400;10.808;2023-06-22T00:13:37;4.95;;;2.75;;
38513;SDS011;24282;48.400;10.808;2023-06-22T00:16:03;3.65;;;2.88;;
38513;SDS011;24282;48.400;10.808;2023-06-22T00:18:29;4.32;;;2.92;;
38513;SDS011;24282;48.400;10.808;2023-06-22T00:20:55;3.85;;;2.75;;
38513;SDS011;24282;48.400;10.808;2023-06-22T00:23:24;4.60;;;2.70;;
38513;SDS011;24282;48.400;10.808;2023-06-22T00:25:50;4.55;;;2.70;;
38513;SDS011;24282;48.400;10.808;2023-06-22T00:28:16;4.93;;;2.70;;
38513;SDS011;24282;48.400;10.808;2023-06-22T00:30:41;4.25;;;3.22;;
38513;SDS011;24282;48.400;10.808;2023-06-22T00:33:07;3.78;;;2.83;;
38513;SDS011;24282;48.400;10.808;2023-06-22T00:35:33;4.35;;;2.58;;
38513;SDS011;24282;48.400;10.808;2023-06-22T00:37:59;4.50;;;2.92;;
38513;SDS011;24282;48.400;10.808;2023-06-22T00:40:26;4.43;;;3.15;;
38513;SDS011;24282;48.400;10.808;2023-06-22T00:42:53;3.53;;;2.97;;
38513;SDS011;24282;48.400;10.808;2023-06-22T00:45:19;5.13;;;3.00;;
38513;SDS011;24282;48.400;10.808;2023-06-22T00:47:46;4.13;;;2.83;;
38513;SDS011;24282;48.400;10.808;2023-06-22T00:50:13;4.07;;;3.15;;
38513;SDS011;24282;48.400;10.808;2023-06-22T00:52:43;3.67;;;2.72;;
38513;SDS011;24282;48.400;10.808;2023-06-22T00:55:11;4.68;;;3.00;;
38513;SDS011;24282;48.400;10.808;2023-06-22T00:57:37;4.55;;;3.35;;
38513;SDS011;24282;48.400;10.808;2023-06-22T01:00:03;4.10;;;2.78;;
38513;SDS011;24282;48.400;10.808;2023-06-22T01:02:34;4.10;;;2.70;;
38513;SDS011;24282;48.400;10.808;2023-06-22T01:04:59;4.07;;;2.65;;
38513;SDS011;24282;48.400;10.808;2023-06-22T01:07:30;3.78;;;2.50;;
38513;SDS011;24282;48.400;10.808;2023-06-22T01:10:07;4.32;;;2.97;;
38513;SDS011;24282;48.400;10.808;2023-06-22T01:12:42;4.90;;;3.58;;
38513;SDS011;24282;48.400;10.808;2023-06-22T01:15:15;3.53;;;2.78;;
38513;SDS011;24282;48.400;10.808;2023-06-22T01:17:48;4.05;;;3.30;;
38513;SDS011;24282;48.400;10.808;2023-06-22T01:20:17;4.65;;;3.33;;
38513;SDS011;24282;48.400;10.808;2023-06-22T01:25:43;6.25;;;3.13;;
38513;SDS011;24282;48.400;10.808;2023-06-22T01:31:10;3.70;;;2.85;;
38513;SDS011;24282;48.400;10.808;2023-06-22T01:33:41;3.60;;;2.90;;
38513;SDS011;24282;48.400;10.808;2023-06-22T01:36:07;5.28;;;3.08;;
38513;SDS011;24282;48.400;10.808;2023-06-22T01:38:34;5.60;;;3.30;;
38513;SDS011;24282;48.400;10.808;2023-06-22T01:41:02;5.28;;;3.20;;
38513;SDS011;24282;48.400;10.808;2023-06-22T01:43:28;4.22;;;3.08;;
38513;SDS011;24282;48.400;10.808;2023-06-22T01:45:55;4.70;;;2.83;;
38513;SDS011;24282;48.400;10.808;2023-06-22T01:48:22;3.88;;;2.90;;
38513;SDS011;24282;48.400;10.808;2023-06-22T01:50:49;5.15;;;3.25;;
38513;SDS011;24282;48.400;10.808;2023-06-22T01:53:16;4.35;;;3.28;;
38513;SDS011;24282;48.400;10.808;2023-06-22T01:55:41;4.25;;;3.03;;
38513;SDS011;24282;48.400;10.808;2023-06-22T01:58:07;4.00;;;3.22;;
38513;SDS011;24282;48.400;10.808;2023-06-22T02:00:33;5.78;;;3.20;;
38513;SDS011;24282;48.400;10.808;2023-06-22T02:03:08;4.28;;;3.05;;
38513;SDS011;24282;48.400;10.808;2023-06-22T02:05:38;4.57;;;3.20;;
38513;SDS011;24282;48.400;10.808;2023-06-22T02:10:36;4.05;;;2.85;;
38513;SDS011;24282;48.400;10.808;2023-06-22T02:13:04;3.95;;;3.10;;
38513;SDS011;24282;48.400;10.808;2023-06-22T02:15:32;5.53;;;3.65;;
38513;SDS011;24282;48.400;10.808;2023-06-22T02:17:58;5.55;;;3.55;;
38513;SDS011;24282;48.400;10.808;2023-06-22T02:20:24;4.72;;;3.10;;
38513;SDS011;24282;48.400;10.808;2023-06-22T02:22:50;4.95;;;3.13;;
38513;SDS011;24282;48.400;10.808;2023-06-22T02:25:16;4.60;;;3.55;;
38513;SDS011;24282;48.400;10.808;2023-06-22T02:27:44;4.68;;;3.78;;
38513;SDS011;24282;48.400;10.808;2023-06-22T02:30:11;4.38;;;2.97;;
38513;SDS011;24282;48.400;10.808;2023-06-22T02:32:38;6.22;;;3.72;;
38513;SDS011;24282;48.400;10.808;2023-06-22T02:35:07;4.90;;;3.50;;
38513;SDS011;24282;48.400;10.808;2023-06-22T02:37:33;8.55;;;3.72;;
38513;SDS011;24282;48.400;10.808;2023-06-22T02:40:04;5.15;;;3.60;;
38513;SDS011;24282;48.400;10.808;2023-06-22T02:42:33;4.22;;;3.13;;
38513;SDS011;24282;48.400;10.808;2023-06-22T02:44:59;4.18;;;3.47;;
38513;SDS011;24282;48.400;10.808;2023-06-22T02:47:26;4.45;;;3.33;;
38513;SDS011;24282;48.400;10.808;2023-06-22T02:49:51;4.72;;;3.70;;
38513;SDS011;24282;48.400;10.808;2023-06-22T02:52:18;3.95;;;3.55;;
38513;SDS011;24282;48.400;10.808;2023-06-22T02:54:43;4.57;;;3.65;;
38513;SDS011;24282;48.400;10.808;2023-06-22T02:57:13;4.68;;;3.72;;
38513;SDS011;24282;48.400;10.808;2023-06-22T02:59:40;3.67;;;3.38;;
38513;SDS011;24282;48.400;10.808;2023-06-22T03:02:08;4.88;;;3.83;;
38513;SDS011;24282;48.400;10.808;2023-06-22T03:04:35;4.15;;;3.45;;
38513;SDS011;24282;48.400;10.808;2023-06-22T03:07:01;6.18;;;3.85;;
38513;SDS011;24282;48.400;10.808;2023-06-22T03:09:28;4.78;;;3.80;;
38513;SDS011;24282;48.400;10.808;2023-06-22T03:11:56;4.60;;;3.78;;
38513;SDS011;24282;48.400;10.808;2023-06-22T03:14:26;4.55;;;4.15;;
38513;SDS011;24282;48.400;10.808;2023-06-22T03:16:52;5.82;;;4.00;;
38513;SDS011;24282;48.400;10.808;2023-06-22T03:19:18;5.00;;;4.10;;
38513;SDS011;24282;48.400;10.808;2023-06-22T03:21:46;6.25;;;4.00;;
38513;SDS011;24282;48.400;10.808;2023-06-22T03:24:12;4.38;;;3.78;;
38513;SDS011;24282;48.400;10.808;2023-06-22T03:26:38;6.75;;;4.05;;
38513;SDS011;24282;48.400;10.808;2023-06-22T03:29:03;4.88;;;3.35;;
38513;SDS011;24282;48.400;10.808;2023-06-22T03:31:30;4.47;;;3.72;;
38513;SDS011;24282;48.400;10.808;2023-06-22T03:33:56;4.57;;;3.70;;
38513;SDS011;24282;48.400;10.808;2023-06-22T03:36:22;6.35;;;3.83;;
38513;SDS011;24282;48.400;10.808;2023-06-22T03:38:49;7.00;;;3.55;;
38513;SDS011;24282;48.400;10.808;2023-06-22T03:41:15;5.03;;;4.32;;
38513;SDS011;24282;48.400;10.808;2023-06-22T03:43:41;5.05;;;3.40;;
38513;SDS011;24282;48.400;10.808;2023-06-22T03:46:07;6.82;;;4.13;;
38513;SDS011;24282;48.400;10.808;2023-06-22T03:48:33;4.88;;;4.05;;
38513;SDS011;24282;48.400;10.808;2023-06-22T03:50:59;4.25;;;3.80;;
38513;SDS011;24282;48.400;10.808;2023-06-22T03:53:26;5.53;;;4.07;;
38513;SDS011;24282;48.400;10.808;2023-06-22T03:55:52;4.40;;;4.00;;
38513;SDS011;24282;48.400;10.808;2023-06-22T03:58:18;4.68;;;3.45;;
38513;SDS011;24282;48.400;10.808;2023-06-22T04:00:48;4.53;;;3.80;;
38513;SDS011;24282;48.400;10.808;2023-06-22T04:03:16;4.70;;;4.03;;
38513;SDS011;24282;48.400;10.808;2023-06-22T04:05:43;5.15;;;3.47;;
38513;SDS011;24282;48.400;10.808;2023-06-22T04:08:10;4.82;;;3.85;;
38513;SDS011;24282;48.400;10.808;2023-06-22T04:10:37;4.43;;;3.80;;
38513;SDS011;24282;48.400;10.808;2023-06-22T04:13:03;6.22;;;3.90;;
38513;SDS011;24282;48.400;10.808;2023-06-22T04:15:29;5.85;;;3.58;;
38513;SDS011;24282;48.400;10.808;2023-06-22T04:17:55;4.80;;;3.72;;
38513;SDS011;24282;48.400;10.808;2023-06-22T04:20:21;6.25;;;3.83;;
38513;SDS011;24282;48.400;10.808;2023-06-22T04:22:47;4.80;;;3.60;;
38513;SDS011;24282;48.400;10.808;2023-06-22T04:25:13;6.57;;;3.78;;
38513;SDS011;24282;48.400;10.808;2023-06-22T04:27:39;4.15;;;3.75;;
38513;SDS011;24282;48.400;10.808;2023-06-22T04:30:08;4.38;;;3.42;;
38513;SDS011;24282;48.400;10.808;2023-06-22T04:32:34;4.43;;;3.97;;
38513;SDS011;24282;48.400;10.808;2023-06-22T04:35:04;4.95;;;3.75;;
38513;SDS011;24282;48.400;10.808;2023-06-22T04:37:32;4.53;;;3.72;;
38513;SDS011;24282;48.400;10.808;2023-06-22T04:39:58;5.93;;;3.90;;
38513;SDS011;24282;48.400;10.808;2023-06-22T04:42:27;4.72;;;3.67;;
38513;SDS011;24282;48.400;10.808;2023-06-22T04:44:53;4.82;;;3.58;;
38513;SDS011;24282;48.400;10.808;2023-06-22T04:47:19;5.32;;;3.92;;
38513;SDS011;24282;48.400;10.808;2023-06-22T04:49:45;4.78;;;3.88;;
38513;SDS011;24282;48.400;10.808;2023-06-22T04:52:11;4.10;;;3.65;;
38513;SDS011;24282;48.400;10.808;2023-06-22T04:54:39;8.18;;;4.80;;
38513;SDS011;24282;48.400;10.808;2023-06-22T04:57:13;5.80;;;3.83;;
38513;SDS011;24282;48.400;10.808;2023-06-22T04:59:40;7.38;;;4.47;;
38513;SDS011;24282;48.400;10.808;2023-06-22T05:02:07;4.85;;;3.72;;
38513;SDS011;24282;48.400;10.808;2023-06-22T05:04:33;5.13;;;3.65;;
38513;SDS011;24282;48.400;10.808;2023-06-22T05:07:01;5.63;;;3.88;;
38513;SDS011;24282;48.400;10.808;2023-06-22T05:09:27;4.57;;;3.33;;
38513;SDS011;24282;48.400;10.808;2023-06-22T05:11:54;5.30;;;3.78;;
38513;SDS011;24282;48.400;10.808;2023-06-22T05:14:21;6.10;;;3.95;;
38513;SDS011;24282;48.400;10.808;2023-06-22T05:16:48;5.55;;;3.70;;
38513;SDS011;24282;48.400;10.808;2023-06-22T05:19:17;4.97;;;4.18;;
38513;SDS011;24282;48.400;10.808;2023-06-22T05:21:42;4.95;;;3.95;;
38513;SDS011;24282;48.400;10.808;2023-06-22T05:24:08;5.30;;;3.55;;
38513;SDS011;24282;48.400;10.808;2023-06-22T05:26:34;4.07;;;3.65;;
38513;SDS011;24282;48.400;10.808;2023-06-22T05:29:01;5.63;;;4.05;;
38513;SDS011;24282;48.400;10.808;2023-06-22T05:31:28;7.20;;;4.30;;
38513;SDS011;24282;48.400;10.808;2023-06-22T05:33:54;5.50;;;4.32;;
38513;SDS011;24282;48.400;10.808;2023-06-22T05:36:20;5.30;;;4.50;;
38513;SDS011;24282;48.400;10.808;2023-06-22T05:38:49;4.68;;;3.90;;
38513;SDS011;24282;48.400;10.808;2023-06-22T05:41:14;4.55;;;3.75;;
38513;SDS011;24282;48.400;10.808;2023-06-22T05:43:40;3.88;;;3.47;;
38513;SDS011;24282;48.400;10.808;2023-06-22T05:46:06;4.13;;;3.72;;
38513;SDS011;24282;48.400;10.808;2023-06-22T05:48:31;4.15;;;3.75;;
38513;SDS011;24282;48.400;10.808;2023-06-22T05:50:58;5.97;;;3.92;;
38513;SDS011;24282;48.400;10.808;2023-06-22T05:53:24;4.93;;;3.85;;
38513;SDS011;24282;48.400;10.808;2023-06-22T05:55:50;3.53;;;3.08;;
38513;SDS011;24282;48.400;10.808;2023-06-22T05:58:16;4.65;;;3.78;;
38513;SDS011;24282;48.400;10.808;2023-06-22T06:00:42;6.13;;;4.20;;
38513;SDS011;24282;48.400;10.808;2023-06-22T06:03:08;4.50;;;4.10;;
38513;SDS011;24282;48.400;10.808;2023-06-22T06:05:34;5.32;;;4.57;;
38513;SDS011;24282;48.400;10.808;2023-06-22T06:08:01;5.50;;;3.65;;
38513;SDS011;24282;48.400;10.808;2023-06-22T06:10:33;4.45;;;3.85;;
38513;SDS011;24282;48.400;10.808;2023-06-22T06:13:00;4.28;;;3.78;;
38513;SDS011;24282;48.400;10.808;2023-06-22T06:15:30;4.55;;;3.42;;
38513;SDS011;24282;48.400;10.808;2023-06-22T06:17:57;4.72;;;3.40;;
38513;SDS011;24282;48.400;10.808;2023-06-22T06:20:23;6.63;;;4.22;;
38513;SDS011;24282;48.400;10.808;2023-06-22T06:22:49;4.22;;;2.97;;
38513;SDS011;24282;48.400;10.808;2023-06-22T06:25:15;5.35;;;3.88;;
38513;SDS011;24282;48.400;10.808;2023-06-22T06:27:45;4.10;;;3.17;;
38513;SDS011;24282;48.400;10.808;2023-06-22T06:30:11;4.32;;;3.17;;
38513;SDS011;24282;48.400;10.808;2023-06-22T06:32:38;5.72;;;3.47;;
38513;SDS011;24282;48.400;10.808;2023-06-22T06:35:08;5.03;;;2.90;;
38513;SDS011;24282;48.400;10.808;2023-06-22T06:37:36;3.45;;;2.88;;
38513;SDS011;24282;48.400;10.808;2023-06-22T06:40:04;5.25;;;3.03;;
38513;SDS011;24282;48.400;10.808;2023-06-22T06:42:36;3.72;;;2.88;;
38513;SDS011;24282;48.400;10.808;2023-06-22T06:45:04;5.43;;;3.70;;
38513;SDS011;24282;48.400;10.808;2023-06-22T06:47:30;3.80;;;2.72;;
38513;SDS011;24282;48.400;10.808;2023-06-22T06:49:56;3.78;;;3.20;;
38513;SDS011;24282;48.400;10.808;2023-06-22T06:52:22;4.07;;;2.90;;
38513;SDS011;24282;48.400;10.808;2023-06-22T06:54:48;6.07;;;3.10;;
38513;SDS011;24282;48.400;10.808;2023-06-22T06:57:13;4.43;;;3.00;;
38513;SDS011;24282;48.400;10.808;2023-06-22T06:59:40;4.43;;;2.80;;
38513;SDS011;24282;48.400;10.808;2023-06-22T07:02:06;4.57;;;3.10;;
38513;SDS011;24282;48.400;10.808;2023-06-22T07:04:32;4.57;;;2.90;;
38513;SDS011;24282;48.400;10.808;2023-06-22T07:07:00;3.67;;;2.63;;
38513;SDS011;24282;48.400;10.808;2023-06-22T07:09:27;4.93;;;3.17;;
38513;SDS011;24282;48.400;10.808;2023-06-22T07:11:52;3.38;;;2.78;;
38513;SDS011;24282;48.400;10.808;2023-06-22T07:14:18;3.92;;;2.80;;
38513;SDS011;24282;48.400;10.808;2023-06-22T07:16:44;3.40;;;2.38;;
38513;SDS011;24282;48.400;10.808;2023-06-22T07:19:11;4.18;;;2.67;;
38513;SDS011;24282;48.400;10.808;2023-06-22T07:21:38;4.05;;;2.70;;
38513;SDS011;24282;48.400;10.808;2023-06-22T07:24:04;5.18;;;2.88;;
38513;SDS011;24282;48.400;10.808;2023-06-22T07:26:31;3.75;;;2.50;;
38513;SDS011;24282;48.400;10.808;2023-06-22T07:28:58;5.50;;;2.92;;
38513;SDS011;24282;48.400;10.808;2023-06-22T07:31:26;4.18;;;2.35;;
38513;SDS011;24282;48.400;10.808;2023-06-22T07:33:52;6.22;;;3.50;;
38513;SDS011;24282;48.400;10.808;2023-06-22T07:36:18;3.58;;;2.70;;
38513;SDS011;24282;48.400;10.808;2023-06-22T07:38:43;5.57;;;2.85;;
38513;SDS011;24282;48.400;10.808;2023-06-22T07:41:09;4.10;;;2.65;;
38513;SDS011;24282;48.400;10.808;2023-06-22T07:43:35;3.92;;;2.60;;
38513;SDS011;24282;48.400;10.808;2023-06-22T07:46:05;3.45;;;2.60;;
38513;SDS011;24282;48.400;10.808;2023-06-22T07:48:31;5.28;;;2.78;;
38513;SDS011;24282;48.400;10.808;2023-06-22T07:50:57;6.32;;;2.85;;
38513;SDS011;24282;48.400;10.808;2023-06-22T07:53:23;4.95;;;3.00;;
38513;SDS011;24282;48.400;10.808;2023-06-22T07:55:49;5.18;;;3.00;;
38513;SDS011;24282;48.400;10.808;2023-06-22T07:58:15;5.60;;;2.80;;
38513;SDS011;24282;48.400;10.808;2023-06-22T08:00:41;5.50;;;2.67;;
38513;SDS011;24282;48.400;10.808;2023-06-22T08:03:07;3.95;;;2.45;;
38513;SDS011;24282;48.400;10.808;2023-06-22T08:05:32;4.63;;;2.83;;
38513;SDS011;24282;48.400;10.808;2023-06-22T08:07:58;3.70;;;2.50;;
38513;SDS011;24282;48.400;10.808;2023-06-22T08:10:24;5.55;;;2.83;;
38513;SDS011;24282;48.400;10.808;2023-06-22T08:12:50;4.82;;;2.70;;
38513;SDS011;24282;48.400;10.808;2023-06-22T08:15:17;4.28;;;2.50;;
38513;SDS011;24282;48.400;10.808;2023-06-22T08:17:43;4.80;;;2.42;;
38513;SDS011;24282;48.400;10.808;2023-06-22T08:20:10;5.70;;;2.85;;
38513;SDS011;24282;48.400;10.808;2023-06-22T08:22:40;4.60;;;2.60;;
38513;SDS011;24282;48.400;10.808;2023-06-22T08:25:07;4.95;;;2.47;;
38513;SDS011;24282;48.400;10.808;2023-06-22T08:27:34;4.97;;;2.47;;
38513;SDS011;24282;48.400;10.808;2023-06-22T08:30:00;6.05;;;2.65;;
38513;SDS011;24282;48.400;10.808;2023-06-22T08:32:27;7.38;;;2.92;;
38513;SDS011;24282;48.400;10.808;2023-06-22T08:34:56;4.82;;;2.72;;
38513;SDS011;24282;48.400;10.808;2023-06-22T08:37:22;6.60;;;2.60;;
38513;SDS011;24282;48.400;10.808;2023-06-22T08:39:55;3.63;;;2.60;;
38513;SDS011;24282;48.400;10.808;2023-06-22T08:42:22;4.22;;;2.40;;
38513;SDS011;24282;48.400;10.808;2023-06-22T08:44:49;4.30;;;2.30;;
38513;SDS011;24282;48.400;10.808;2023-06-22T08:47:15;4.50;;;3.10;;
38513;SDS011;24282;48.400;10.808;2023-06-22T08:49:40;6.85;;;3.00;;
38513;SDS011;24282;48.400;10.808;2023-06-22T08:52:06;4.95;;;2.63;;
38513;SDS011;24282;48.400;10.808;2023-06-22T08:54:32;4.00;;;2.47;;
38513;SDS011;24282;48.400;10.808;2023-06-22T08:57:00;6.30;;;2.60;;
38513;SDS011;24282;48.400;10.808;2023-06-22T08:59:26;3.53;;;2.40;;
38513;SDS011;24282;48.400;10.808;2023-06-22T09:01:51;4.40;;;2.65;;
38513;SDS011;24282;48.400;10.808;2023-06-22T09:04:17;4.90;;;2.65;;
38513;SDS011;24282;48.400;10.808;2023-06-22T09:06:43;4.28;;;2.75;;
38513;SDS011;24282;48.400;10.808;2023-06-22T09:09:10;3.45;;;2.42;;
38513;SDS011;24282;48.400;10.808;2023-06-22T09:11:37;4.55;;;2.83;;
38513;SDS011;24282;48.400;10.808;2023-06-22T09:14:03;4.53;;;2.88;;
38513;SDS011;24282;48.400;10.808;2023-06-22T09:16:29;4.72;;;2.70;;
38513;SDS011;24282;48.400;10.808;2023-06-22T09:18:55;6.15;;;2.47;;
38513;SDS011;24282;48.400;10.808;2023-06-22T09:21:21;5.05;;;2.75;;
38513;SDS011;24282;48.400;10.808;2023-06-22T09:23:47;4.55;;;2.88;;
38513;SDS011;24282;48.400;10.808;2023-06-22T09:26:16;5.13;;;2.80;;
38513;SDS011;24282;48.400;10.808;2023-06-22T09:28:43;5.18;;;2.67;;
38513;SDS011;24282;48.400;10.808;2023-06-22T09:31:08;5.32;;;2.70;;
38513;SDS011;24282;48.400;10.808;2023-06-22T09:33:35;6.53;;;2.47;;
38513;SDS011;24282;48.400;10.808;2023-06-22T09:36:11;4.25;;;2.58;;
38513;SDS011;24282;48.400;10.808;2023-06-22T09:38:37;6.43;;;2.90;;
38513;SDS011;24282;48.400;10.808;2023-06-22T09:41:04;4.55;;;2.58;;
38513;SDS011;24282;48.400;10.808;2023-06-22T09:43:31;8.43;;;3.35;;
38513;SDS011;24282;48.400;10.808;2023-06-22T09:45:59;3.78;;;2.40;;
38513;SDS011;24282;48.400;10.808;2023-06-22T09:48:27;5.55;;;2.85;;
38513;SDS011;24282;48.400;10.808;2023-06-22T09:50:54;7.85;;;3.10;;
38513;SDS011;24282;48.400;10.808;2023-06-22T09:53:20;4.55;;;2.58;;
38513;SDS011;24282;48.400;10.808;2023-06-22T09:55:45;3.80;;;1.98;;
38513;SDS011;24282;48.400;10.808;2023-06-22T09:58:11;4.47;;;2.38;;
38513;SDS011;24282;48.400;10.808;2023-06-22T10:00:37;4.85;;;2.88;;
38513;SDS011;24282;48.400;10.808;2023-06-22T10:03:03;4.75;;;2.70;;
38513;SDS011;24282;48.400;10.808;2023-06-22T10:05:29;6.05;;;3.25;;
38513;SDS011;24282;48.400;10.808;2023-06-22T10:07:55;3.78;;;2.33;;
38513;SDS011;24282;48.400;10.808;2023-06-22T10:10:20;5.45;;;2.30;;
38513;SDS011;24282;48.400;10.808;2023-06-22T10:12:47;4.93;;;2.47;;
38513;SDS011;24282;48.400;10.808;2023-06-22T10:15:20;4.72;;;2.70;;
38513;SDS011;24282;48.400;10.808;2023-06-22T10:17:46;5.00;;;2.60;;
38513;SDS011;24282;48.400;10.808;2023-06-22T10:20:12;5.40;;;2.40;;
38513;SDS011;24282;48.400;10.808;2023-06-22T10:22:41;5.38;;;2.60;;
38513;SDS011;24282;48.400;10.808;2023-06-22T10:25:09;4.00;;;2.40;;
38513;SDS011;24282;48.400;10.808;2023-06-22T10:27:35;3.78;;;2.25;;
38513;SDS011;24282;48.400;10.808;2023-06-22T10:30:01;3.80;;;2.40;;
38513;SDS011;24282;48.400;10.808;2023-06-22T10:32:27;5.55;;;2.97;;
38513;SDS011;24282;48.400;10.808;2023-06-22T10:34:53;5.70;;;2.65;;
38513;SDS011;24282;48.400;10.808;2023-06-22T10:37:19;4.65;;;2.50;;
38513;SDS011;24282;48.400;10.808;2023-06-22T10:39:45;4.28;;;2.55;;
38513;SDS011;24282;48.400;10.808;2023-06-22T10:42:11;3.70;;;2.63;;
38513;SDS011;24282;48.400;10.808;2023-06-22T10:44:37;4.82;;;2.58;;
38513;SDS011;24282;48.400;10.808;2023-06-22T10:47:05;5.57;;;2.50;;
38513;SDS011;24282;48.400;10.808;2023-06-22T10:49:31;5.55;;;2.60;;
38513;SDS011;24282;48.400;10.808;2023-06-22T10:51:57;4.03;;;2.50;;
38513;SDS011;24282;48.400;10.808;2023-06-22T10:54:23;5.18;;;2.60;;
38513;SDS011;24282;48.400;10.808;2023-06-22T10:56:48;6.82;;;3.05;;
38513;SDS011;24282;48.400;10.808;2023-06-22T10:59:14;5.43;;;3.08;;
38513;SDS011;24282;48.400;10.808;2023-06-22T11:01:41;4.25;;;2.58;;
38513;SDS011;24282;48.400;10.808;2023-06-22T11:04:06;4.68;;;2.80;;
38513;SDS011;24282;48.400;10.808;2023-06-22T11:06:32;6.32;;;2.88;;
38513;SDS011;24282;48.400;10.808;2023-06-22T11:08:58;5.43;;;3.00;;
38513;SDS011;24282;48.400;10.808;2023-06-22T11:11:25;7.30;;;2.90;;
38513;SDS011;24282;48.400;10.808;2023-06-22T11:13:50;6.30;;;2.70;;
38513;SDS011;24282;48.400;10.808;2023-06-22T11:16:17;4.32;;;2.40;;
38513;SDS011;24282;48.400;10.808;2023-06-22T11:18:43;7.80;;;2.95;;
38513;SDS011;24282;48.400;10.808;2023-06-22T11:21:08;4.68;;;2.70;;
38513;SDS011;24282;48.400;10.808;2023-06-22T11:23:34;4.43;;;2.75;;
38513;SDS011;24282;48.400;10.808;2023-06-22T11:26:00;5.75;;;2.85;;
38513;SDS011;24282;48.400;10.808;2023-06-22T11:28:26;5.88;;;3.28;;
38513;SDS011;24282;48.400;10.808;2023-06-22T11:30:52;5.85;;;2.88;;
38513;SDS011;24282;48.400;10.808;2023-06-22T11:33:18;5.47;;;3.17;;
38513;SDS011;24282;48.400;10.808;2023-06-22T11:35:44;5.93;;;3.60;;
38513;SDS011;24282;48.400;10.808;2023-06-22T11:38:09;5.78;;;3.03;;
38513;SDS011;24282;48.400;10.808;2023-06-22T11:40:35;5.75;;;2.72;;
38513;SDS011;24282;48.400;10.808;2023-06-22T11:43:01;5.15;;;2.72;;
38513;SDS011;24282;48.400;10.808;2023-06-22T11:45:27;4.93;;;2.78;;
38513;SDS011;24282;48.400;10.808;2023-06-22T11:47:53;4.68;;;2.90;;
38513;SDS011;24282;48.400;10.808;2023-06-22T11:50:19;6.70;;;3.08;;
38513;SDS011;24282;48.400;10.808;2023-06-22T11:52:44;6.95;;;3.40;;
38513;SDS011;24282;48.400;10.808;2023-06-22T11:55:10;6.63;;;3.33;;
38513;SDS011;24282;48.400;10.808;2023-06-22T11:57:37;6.32;;;2.83;;
38513;SDS011;24282;48.400;10.808;2023-06-22T12:00:03;5.78;;;2.75;;
38513;SDS011;24282;48.400;10.808;2023-06-22T12:02:41;4.53;;;2.50;;
38513;SDS011;24282;48.400;10.808;2023-06-22T12:05:07;8.50;;;3.60;;
38513;SDS011;24282;48.400;10.808;2023-06-22T12:07:33;5.03;;;2.50;;
38513;SDS011;24282;48.400;10.808;2023-06-22T12:09:59;4.75;;;2.45;;
38513;SDS011;24282;48.400;10.808;2023-06-22T12:12:24;4.65;;;2.78;;
38513;SDS011;24282;48.400;10.808;2023-06-22T12:14:50;3.53;;;2.55;;
38513;SDS011;24282;48.400;10.808;2023-06-22T12:17:16;4.03;;;2.47;;
38513;SDS011;24282;48.400;10.808;2023-06-22T12:19:41;6.00;;;2.80;;
38513;SDS011;24282;48.400;10.808;2023-06-22T12:22:07;4.22;;;2.30;;
38513;SDS011;24282;48.400;10.808;2023-06-22T12:24:33;6.13;;;2.70;;
38513;SDS011;24282;48.400;10.808;2023-06-22T12:26:58;5.97;;;2.88;;
38513;SDS011;24282;48.400;10.808;2023-06-22T12:29:24;4.43;;;2.83;;
38513;SDS011;24282;48.400;10.808;2023-06-22T12:31:50;5.35;;;2.38;;
38513;SDS011;24282;48.400;10.808;2023-06-22T12:34:15;3.47;;;2.20;;
38513;SDS011;24282;48.400;10.808;2023-06-22T12:36:41;6.30;;;2.88;;
38513;SDS011;24282;48.400;10.808;2023-06-22T12:39:07;4.65;;;2.47;;
38513;SDS011;24282;48.400;10.808;2023-06-22T12:41:33;7.38;;;3.35;;
38513;SDS011;24282;48.400;10.808;2023-06-22T12:43:58;6.45;;;2.85;;
38513;SDS011;24282;48.400;10.808;2023-06-22T12:46:24;5.53;;;3.05;;
38513;SDS011;24282;48.400;10.808;2023-06-22T12:48:50;4.90;;;2.53;;
38513;SDS011;24282;48.400;10.808;2023-06-22T12:51:22;5.65;;;3.05;;
38513;SDS011;24282;48.400;10.808;2023-06-22T12:53:48;6.88;;;3.00;;
38513;SDS011;24282;48.400;10.808;2023-06-22T12:56:13;4.97;;;2.75;;
38513;SDS011;24282;48.400;10.808;2023-06-22T12:58:39;4.68;;;2.75;;
38513;SDS011;24282;48.400;10.808;2023-06-22T13:01:05;4.75;;;2.60;;
38513;SDS011;24282;48.400;10.808;2023-06-22T13:03:31;5.28;;;2.53;;
38513;SDS011;24282;48.400;10.808;2023-06-22T13:05:56;6.03;;;2.83;;
38513;SDS011;24282;48.400;10.808;2023-06-22T13:08:22;6.03;;;2.85;;
38513;SDS011;24282;48.400;10.808;2023-06-22T13:10:48;4.88;;;2.58;;
38513;SDS011;24282;48.400;10.808;2023-06-22T13:13:13;5.97;;;2.72;;
38513;SDS011;24282;48.400;10.808;2023-06-22T13:15:39;5.25;;;2.90;;
38513;SDS011;24282;48.400;10.808;2023-06-22T13:18:05;5.38;;;2.78;;
38513;SDS011;24282;48.400;10.808;2023-06-22T13:20:30;4.90;;;2.63;;
38513;SDS011;24282;48.400;10.808;2023-06-22T13:22:56;7.57;;;3.15;;
38513;SDS011;24282;48.400;10.808;2023-06-22T13:25:22;7.55;;;2.50;;
38513;SDS011;24282;48.400;10.808;2023-06-22T13:27:51;4.65;;;2.53;;
38513;SDS011;24282;48.400;10.808;2023-06-22T13:30:17;5.35;;;2.80;;
38513;SDS011;24282;48.400;10.808;2023-06-22T13:32:43;5.53;;;2.50;;
38513;SDS011;24282;48.400;10.808;2023-06-22T13:35:09;8.05;;;2.92;;
38513;SDS011;24282;48.400;10.808;2023-06-22T13:37:35;6.82;;;2.97;;
38513;SDS011;24282;48.400;10.808;2023-06-22T13:40:01;7.50;;;3.10;;
38513;SDS011;24282;48.400;10.808;2023-06-22T13:42:30;5.90;;;3.00;;
38513;SDS011;24282;48.400;10.808;2023-06-22T13:44:56;5.85;;;2.90;;
38513;SDS011;24282;48.400;10.808;2023-06-22T13:47:21;8.15;;;3.10;;
38513;SDS011;24282;48.400;10.808;2023-06-22T13:49:47;4.07;;;2.50;;
38513;SDS011;24282;48.400;10.808;2023-06-22T13:52:13;5.80;;;2.60;;
38513;SDS011;24282;48.400;10.808;2023-06-22T13:54:38;4.88;;;2.50;;
38513;SDS011;24282;48.400;10.808;2023-06-22T13:57:04;5.22;;;2.60;;
38513;SDS011;24282;48.400;10.808;2023-06-22T13:59:31;4.70;;;2.60;;
38513;SDS011;24282;48.400;10.808;2023-06-22T14:01:56;5.28;;;2.85;;
38513;SDS011;24282;48.400;10.808;2023-06-22T14:04:25;4.53;;;2.50;;
38513;SDS011;24282;48.400;10.808;2023-06-22T14:06:51;4.43;;;2.63;;
38513;SDS011;24282;48.400;10.808;2023-06-22T14:09:17;4.90;;;3.10;;
38513;SDS011;24282;48.400;10.808;2023-06-22T14:11:42;5.93;;;3.08;;
38513;SDS011;24282;48.400;10.808;2023-06-22T14:14:08;7.05;;;3.10;;
38513;SDS011;24282;48.400;10.808;2023-06-22T14:16:34;6.53;;;3.58;;
38513;SDS011;24282;48.400;10.808;2023-06-22T14:18:59;5.60;;;2.63;;
38513;SDS011;24282;48.400;10.808;2023-06-22T14:21:26;3.92;;;2.35;;
38513;SDS011;24282;48.400;10.808;2023-06-22T14:23:51;6.88;;;3.15;;
38513;SDS011;24282;48.400;10.808;2023-06-22T14:26:17;4.03;;;2.60;;
38513;SDS011;24282;48.400;10.808;2023-06-22T14:28:46;5.72;;;2.90;;
38513;SDS011;24282;48.400;10.808;2023-06-22T14:31:14;5.05;;;2.85;;
38513;SDS011;24282;48.400;10.808;2023-06-22T14:33:40;7.25;;;3.25;;
38513;SDS011;24282;48.400;10.808;2023-06-22T14:36:06;7.13;;;2.83;;
38513;SDS011;24282;48.400;10.808;2023-06-22T14:38:31;8.20;;;3.40;;